Time;durP1;ratioP1;P1;durP2;ratioP2;P2;SDS_P1;SDS_P2;PMS_P1;PMS_P2;Temp;Humidity;BMP_temperature;BMP_pressure;BME280_temperature;BME280_humidity;BME280_pressure;Samples;Min_cycle;Max_cycle;Signal;HPM_P1;HPM_P2
2020/12/14 00:00:13;;;;;;;72.13;29.57;;;6.30;99.90;;;;;;4998412;28;20832;-65
2020/12/14 00:02:40;;;;;;;73.80;29.60;;;6.30;99.90;;;;;;4996644;28;20844;-65
2020/12/14 00:05:07;;;;;;;89.17;29.03;;;6.30;99.90;;;;;;4995840;28;20525;-65
2020/12/14 00:07:33;;;;;;;77.17;28.90;;;6.40;99.90;;;;;;4996262;28;20921;-65
2020/12/14 00:10:01;;;;;;;73.50;31.17;;;6.40;99.90;;;;;;4997243;28;20446;-64
2020/12/14 00:12:28;;;;;;;74.97;29.47;;;6.50;99.90;;;;;;4996492;28;20462;-65
2020/12/14 00:14:55;;;;;;;84.40;31.03;;;6.50;99.90;;;;;;4995476;28;20445;-63
2020/12/14 00:17:22;;;;;;;69.00;28.27;;;6.50;99.90;;;;;;4997989;28;20568;-64
2020/12/14 00:19:49;;;;;;;80.97;30.37;;;6.50;99.90;;;;;;4998160;28;20532;-66
2020/12/14 00:22:15;;;;;;;72.90;28.70;;;6.40;99.90;;;;;;4997689;28;20461;-66
2020/12/14 00:24:42;;;;;;;65.67;30.50;;;6.40;99.90;;;;;;4998567;28;20450;-65
2020/12/14 00:27:08;;;;;;;67.60;27.00;;;6.50;99.90;;;;;;4999951;28;20544;-64
2020/12/14 00:29:35;;;;;;;61.17;28.00;;;6.50;99.90;;;;;;4991565;28;20466;-65
2020/12/14 00:32:02;;;;;;;56.60;26.37;;;6.50;99.90;;;;;;4991392;28;20562;-66
2020/12/14 00:34:28;;;;;;;69.20;28.10;;;6.50;99.90;;;;;;4989674;28;20484;-66
2020/12/14 00:36:55;;;;;;;70.60;29.57;;;6.60;99.90;;;;;;4987313;28;20878;-67
2020/12/14 00:39:21;;;;;;;73.70;25.93;;;6.60;99.90;;;;;;4986707;28;20521;-66
2020/12/14 00:41:47;;;;;;;72.03;29.70;;;6.60;99.90;;;;;;4987978;28;20477;-66
2020/12/14 00:44:14;;;;;;;69.40;27.40;;;6.60;99.90;;;;;;4987045;28;20446;-66
2020/12/14 00:46:44;;;;;;;68.57;26.47;;;6.60;99.90;;;;;;4977912;28;20456;-65
2020/12/14 00:49:11;;;;;;;65.07;27.97;;;6.70;99.90;;;;;;4978805;28;20435;-66
2020/12/14 00:51:37;;;;;;;75.13;27.30;;;6.70;99.90;;;;;;4981384;28;20558;-66
2020/12/14 00:54:04;;;;;;;66.30;28.07;;;6.60;99.90;;;;;;4982629;28;20513;-66
2020/12/14 00:56:30;;;;;;;57.40;25.60;;;6.60;99.90;;;;;;4981861;28;20462;-65
2020/12/14 00:58:56;;;;;;;76.77;29.67;;;6.60;99.90;;;;;;4982215;28;20479;-66
2020/12/14 01:01:23;;;;;;;72.23;27.63;;;6.60;99.90;;;;;;4985460;28;20442;-66
2020/12/14 01:03:49;;;;;;;74.77;29.30;;;6.60;99.90;;;;;;4993427;28;20531;-66
2020/12/14 01:06:16;;;;;;;59.33;24.87;;;6.60;99.90;;;;;;4996523;28;20537;-67
2020/12/14 01:08:43;;;;;;;64.00;27.83;;;6.60;99.90;;;;;;5001662;28;20473;-67
2020/12/14 01:11:09;;;;;;;60.17;25.77;;;6.60;99.90;;;;;;5007036;28;20521;-67
2020/12/14 01:13:36;;;;;;;69.23;28.00;;;6.60;99.90;;;;;;5011180;28;20496;-67
2020/12/14 01:16:07;;;;;;;59.10;26.37;;;6.60;99.90;;;;;;5001523;28;20446;-65
2020/12/14 01:18:33;;;;;;;54.90;24.50;;;6.70;99.90;;;;;;5002255;28;20540;-66
2020/12/14 01:21:00;;;;;;;64.07;25.43;;;6.70;99.90;;;;;;4995657;28;20503;-66
2020/12/14 01:23:27;;;;;;;66.13;24.93;;;6.70;99.90;;;;;;4990335;28;20492;-66
2020/12/14 01:25:57;;;;;;;64.10;25.67;;;6.60;99.90;;;;;;4993066;28;20524;-66
2020/12/14 01:28:23;;;;;;;66.37;26.70;;;6.60;99.90;;;;;;5020591;28;20422;-65
2020/12/14 01:30:49;;;;;;;57.57;24.50;;;6.60;99.90;;;;;;5020772;28;20433;-66
2020/12/14 01:33:18;;;;;;;55.03;23.50;;;6.60;99.90;;;;;;5020718;28;20441;-66
2020/12/14 01:35:48;;;;;;;56.37;24.67;;;6.60;99.90;;;;;;5004476;28;20491;-66
2020/12/14 01:38:14;;;;;;;64.27;25.60;;;6.70;99.90;;;;;;5001128;28;20486;-67
2020/12/14 01:40:41;;;;;;;58.20;25.17;;;6.70;99.90;;;;;;5001166;28;20486;-66
2020/12/14 01:43:08;;;;;;;55.57;25.23;;;6.70;99.90;;;;;;5009451;28;20457;-65
2020/12/14 01:45:34;;;;;;;69.30;28.00;;;6.70;99.90;;;;;;5002962;28;20467;-66
2020/12/14 01:48:03;;;;;;;72.43;25.13;;;6.70;99.90;;;;;;4988401;28;20959;-65
2020/12/14 01:50:30;;;;;;;68.20;25.23;;;6.70;99.90;;;;;;4988460;28;20501;-66
2020/12/14 01:52:59;;;;;;;61.80;26.00;;;6.70;99.90;;;;;;4987633;28;20431;-66
2020/12/14 01:55:30;;;;;;;64.77;24.57;;;6.70;99.90;;;;;;4991240;28;20465;-65
2020/12/14 08:53:48;;;;;;;25.20;15.00;;;6.30;99.90;;;;;;5753255;23;20616;-66
2020/12/14 08:56:17;;;;;;;29.90;18.53;;;6.40;99.90;;;;;;4957376;29;20454;-68
2020/12/14 08:58:50;;;;;;;28.77;16.57;;;6.40;99.90;;;;;;4959144;29;20487;-65
2020/12/14 09:01:18;;;;;;;30.33;16.73;;;6.50;99.90;;;;;;4959582;29;20483;-66
2020/12/14 09:03:55;;;;;;;25.63;14.53;;;6.60;99.90;;;;;;4960878;29;20432;-65
2020/12/14 09:06:27;;;;;;;22.03;15.90;;;6.50;99.90;;;;;;4960160;29;20479;-65
2020/12/14 09:09:05;;;;;;;30.50;16.10;;;6.60;99.90;;;;;;4958730;29;20484;-66
2020/12/14 09:11:33;;;;;;;20.27;13.80;;;6.70;99.90;;;;;;4960947;28;20506;-65
2020/12/14 09:14:00;;;;;;;29.47;16.63;;;6.80;99.90;;;;;;4963140;29;20452;-66
2020/12/14 09:16:27;;;;;;;22.37;15.20;;;6.80;99.90;;;;;;4970368;28;20946;-65
2020/12/14 09:18:54;;;;;;;31.63;16.40;;;6.90;99.90;;;;;;4978358;28;21035;-64
2020/12/14 09:21:21;;;;;;;30.13;15.20;;;7.00;99.90;;;;;;4978116;28;20501;-66
2020/12/14 09:24:13;;;;;;;25.70;15.07;;;7.10;99.90;;;;;;4978954;28;20478;-65
2020/12/14 09:26:40;;;;;;;26.43;14.30;;;7.10;99.90;;;;;;4978210;28;20529;-65
2020/12/14 09:29:06;;;;;;;29.87;14.90;;;7.10;99.90;;;;;;4978422;28;20938;-64
2020/12/14 09:31:33;;;;;;;23.90;17.00;;;7.20;99.90;;;;;;4977457;28;20442;-65
2020/12/14 09:33:59;;;;;;;21.77;12.83;;;7.20;99.90;;;;;;4979070;28;20538;-66
2020/12/14 09:36:26;;;;;;;23.47;14.20;;;7.30;99.90;;;;;;4978381;28;20533;-65
2020/12/14 09:38:54;;;;;;;21.13;12.13;;;7.40;99.90;;;;;;4979027;28;20490;-65
2020/12/14 09:41:22;;;;;;;23.57;12.40;;;7.40;99.90;;;;;;4978884;28;20497;-65
2020/12/14 09:43:49;;;;;;;19.93;11.47;;;7.40;99.90;;;;;;4978576;28;20443;-65
2020/12/14 09:46:15;;;;;;;20.37;11.07;;;7.40;99.90;;;;;;4978576;28;20451;-65
2020/12/14 09:48:42;;;;;;;19.00;12.03;;;7.30;99.90;;;;;;4978603;28;20454;-73
2020/12/14 09:51:08;;;;;;;20.67;11.60;;;7.30;99.90;;;;;;4978755;28;20545;-73
2020/12/14 09:53:35;;;;;;;21.07;12.27;;;7.30;99.90;;;;;;4978304;28;20471;-74
2020/12/14 09:56:01;;;;;;;20.77;13.13;;;7.20;99.90;;;;;;4978563;28;20546;-71
2020/12/14 09:58:30;;;;;;;21.07;14.00;;;7.20;99.90;;;;;;4966087;28;20490;-72
2020/12/14 10:00:56;;;;;;;22.50;13.30;;;7.10;99.90;;;;;;4959317;29;20459;-73
2020/12/14 10:03:22;;;;;;;26.07;14.03;;;7.00;99.90;;;;;;4960724;29;20494;-71
2020/12/14 10:05:49;;;;;;;23.10;13.87;;;6.90;99.90;;;;;;4961470;29;20439;-72
2020/12/14 10:08:16;;;;;;;20.43;13.50;;;6.90;99.90;;;;;;4960456;29;20486;-71
2020/12/14 10:10:42;;;;;;;24.47;13.90;;;6.90;99.90;;;;;;4960897;29;20868;-72
2020/12/14 10:13:09;;;;;;;20.47;12.77;;;7.00;99.90;;;;;;4960491;29;20530;-72
2020/12/14 10:15:36;;;;;;;25.70;13.07;;;7.00;99.90;;;;;;4961438;29;20459;-72
2020/12/14 10:18:03;;;;;;;20.73;13.50;;;7.00;99.90;;;;;;4960998;29;20518;-72
2020/12/14 10:20:30;;;;;;;26.37;13.23;;;6.90;99.90;;;;;;4960087;29;20456;-72
2020/12/14 10:22:56;;;;;;;21.93;12.57;;;6.90;99.90;;;;;;4942051;29;20459;-70
2020/12/14 10:25:24;;;;;;;28.73;13.60;;;6.90;99.90;;;;;;4961258;29;20580;-70
2020/12/14 10:27:51;;;;;;;24.23;11.93;;;7.00;99.90;;;;;;4960275;29;20487;-71
2020/12/14 10:30:18;;;;;;;31.97;14.17;;;7.00;99.90;;;;;;4960264;29;20495;-72
2020/12/14 10:32:46;;;;;;;25.40;15.13;;;7.00;99.90;;;;;;4960596;29;20526;-70
2020/12/14 10:35:13;;;;;;;23.57;14.63;;;7.10;99.90;;;;;;4960055;28;20508;-72
2020/12/14 10:37:39;;;;;;;27.03;13.80;;;7.10;99.90;;;;;;4960154;29;20515;-70
2020/12/14 10:40:06;;;;;;;19.30;13.27;;;7.10;99.90;;;;;;4960005;29;20475;-71
2020/12/14 10:42:33;;;;;;;23.07;12.97;;;7.20;99.90;;;;;;4960373;29;20452;-72
2020/12/14 10:45:00;;;;;;;19.60;13.50;;;7.20;99.90;;;;;;4960487;29;20451;-72
2020/12/14 10:47:27;;;;;;;20.70;11.97;;;7.30;99.90;;;;;;4959977;29;20454;-71
2020/12/14 10:49:55;;;;;;;21.07;13.43;;;7.30;99.90;;;;;;4959733;29;20439;-71
2020/12/14 10:52:21;;;;;;;22.33;14.20;;;7.30;99.90;;;;;;4960071;29;20491;-70
2020/12/14 10:54:50;;;;;;;20.40;12.90;;;7.30;99.90;;;;;;4959234;29;20951;-72
2020/12/14 10:57:16;;;;;;;20.30;12.90;;;7.30;99.90;;;;;;4964347;28;20483;-72
2020/12/14 10:59:43;;;;;;;19.13;11.50;;;7.40;99.90;;;;;;4978515;28;20542;-73
2020/12/14 11:02:10;;;;;;;19.67;11.83;;;7.50;99.90;;;;;;4978794;28;20470;-73
2020/12/14 11:04:37;;;;;;;22.40;12.70;;;7.60;99.90;;;;;;4978599;28;20936;-73
2020/12/14 11:07:06;;;;;;;21.10;13.27;;;7.70;99.90;;;;;;4978916;28;20565;-71
2020/12/14 11:09:33;;;;;;;24.93;13.03;;;7.70;99.90;;;;;;4979036;28;20447;-74
2020/12/14 11:11:59;;;;;;;22.50;11.43;;;7.70;99.90;;;;;;4977474;28;20590;-73
2020/12/14 11:14:26;;;;;;;26.73;13.40;;;7.80;99.90;;;;;;4976980;28;20534;-71
2020/12/14 11:16:53;;;;;;;27.37;14.67;;;7.80;99.90;;;;;;4977234;28;20457;-73
2020/12/14 11:19:24;;;;;;;25.47;11.37;;;7.90;99.90;;;;;;4959866;29;20483;-75
2020/12/14 11:21:53;;;;;;;20.70;12.33;;;8.00;99.90;;;;;;4957859;29;20492;-74
2020/12/14 11:24:21;;;;;;;20.67;10.60;;;8.00;99.90;;;;;;4959134;29;20448;-72
2020/12/14 11:26:48;;;;;;;16.00;10.40;;;8.00;99.90;;;;;;4959767;29;20463;-70
2020/12/14 11:29:14;;;;;;;15.10;9.03;;;8.00;99.90;;;;;;4960454;29;20470;-71
2020/12/14 11:31:41;;;;;;;17.73;10.60;;;8.00;99.90;;;;;;4960499;29;20728;-72
2020/12/14 11:34:08;;;;;;;18.27;11.00;;;8.00;99.90;;;;;;4959909;28;20440;-71
2020/12/14 11:36:34;;;;;;;18.60;12.07;;;8.00;99.90;;;;;;4959418;29;20491;-72
2020/12/14 11:39:01;;;;;;;21.03;11.27;;;8.00;99.90;;;;;;4959799;29;20483;-71
2020/12/14 11:41:29;;;;;;;18.50;10.83;;;8.00;99.90;;;;;;4960565;29;20447;-71
2020/12/14 11:44:03;;;;;;;21.53;12.00;;;8.10;99.90;;;;;;4959862;29;20478;-71
2020/12/14 11:46:29;;;;;;;19.03;10.33;;;8.20;99.90;;;;;;4961331;28;20515;-71
2020/12/14 11:48:56;;;;;;;18.17;10.50;;;8.30;99.90;;;;;;4959871;29;20526;-73
2020/12/14 11:51:23;;;;;;;17.23;10.33;;;8.30;99.90;;;;;;4959776;29;20845;-71
2020/12/14 11:53:50;;;;;;;19.20;11.30;;;8.30;99.90;;;;;;4959360;29;20570;-71
2020/12/14 11:56:17;;;;;;;16.77;9.63;;;8.30;99.90;;;;;;4960587;29;20992;-71
2020/12/14 11:58:44;;;;;;;15.57;9.20;;;8.30;99.90;;;;;;4975789;28;20483;-71
2020/12/14 12:01:21;;;;;;;18.80;9.47;;;8.30;99.90;;;;;;4993732;28;20458;-72
2020/12/14 12:27:15;;;;;;;16.90;9.37;;;8.20;99.90;;;;;;4988960;28;20509;-72
2020/12/14 12:29:42;;;;;;;16.40;9.17;;;8.20;99.90;;;;;;4998364;28;20537;-76
2020/12/14 12:32:08;;;;;;;15.73;10.67;;;8.20;99.90;;;;;;4999646;28;20936;-68
2020/12/14 12:34:35;;;;;;;19.40;10.07;;;8.20;99.90;;;;;;4979426;28;20531;-69
2020/12/14 12:37:03;;;;;;;16.80;11.67;;;8.20;99.90;;;;;;4998521;28;20575;-67
2020/12/14 12:39:30;;;;;;;19.60;11.40;;;8.20;99.90;;;;;;5002275;28;20863;-67
2020/12/14 12:41:57;;;;;;;16.80;11.00;;;8.20;99.90;;;;;;5003007;28;20445;-68
2020/12/14 12:44:25;;;;;;;16.10;10.67;;;8.20;99.90;;;;;;4992478;28;20458;-70
2020/12/14 12:46:53;;;;;;;15.80;9.10;;;8.20;99.90;;;;;;4994764;28;20437;-69
2020/12/14 12:49:19;;;;;;;16.93;9.97;;;8.20;99.90;;;;;;5003965;28;20446;-68
2020/12/14 12:51:52;;;;;;;20.80;11.50;;;8.20;99.90;;;;;;4998820;28;20516;-68
2020/12/14 12:54:19;;;;;;;19.07;10.37;;;8.20;99.90;;;;;;4999953;28;20981;-68
2020/12/14 12:56:45;;;;;;;16.77;9.57;;;8.20;99.90;;;;;;5004424;28;20478;-68
2020/12/14 12:59:12;;;;;;;22.23;10.57;;;8.30;99.90;;;;;;5013211;28;20481;-70
2020/12/14 13:01:40;;;;;;;15.60;11.07;;;8.30;99.90;;;;;;5009377;28;20614;-70
2020/12/14 13:04:08;;;;;;;18.47;10.67;;;8.30;99.90;;;;;;4997330;28;20449;-71
2020/12/14 13:06:36;;;;;;;17.33;10.17;;;8.40;99.90;;;;;;4993614;28;20470;-69
2020/12/14 13:09:05;;;;;;;14.40;9.00;;;8.40;99.90;;;;;;5001042;28;20763;-76
2020/12/14 13:11:34;;;;;;;15.97;9.93;;;8.50;99.90;;;;;;5001259;28;20453;-76
2020/12/14 13:14:00;;;;;;;15.60;9.17;;;8.60;99.90;;;;;;4996441;28;20475;-69
2020/12/14 13:16:30;;;;;;;18.87;10.17;;;8.60;99.90;;;;;;5007827;28;20445;-70
2020/12/14 13:18:57;;;;;;;16.30;9.80;;;8.60;99.90;;;;;;5009977;28;20477;-68
2020/12/14 13:21:30;;;;;;;16.20;10.27;;;8.50;99.90;;;;;;5005627;28;20943;-76
2020/12/14 13:23:57;;;;;;;14.43;9.30;;;8.50;99.90;;;;;;4992693;28;20470;-68
2020/12/14 13:26:24;;;;;;;14.80;10.10;;;8.50;99.90;;;;;;5004589;28;20571;-69
2020/12/14 13:28:51;;;;;;;14.00;9.90;;;8.60;99.90;;;;;;5002733;28;20505;-69
2020/12/14 13:31:17;;;;;;;15.90;9.70;;;8.60;99.90;;;;;;5000754;28;20449;-69
2020/12/14 13:33:44;;;;;;;16.97;10.00;;;8.60;99.90;;;;;;5003190;28;20488;-68
2020/12/14 13:36:12;;;;;;;15.83;9.70;;;8.60;99.90;;;;;;5002301;28;20488;-68
2020/12/14 13:38:38;;;;;;;14.90;9.20;;;8.50;99.90;;;;;;5002207;28;20568;-74
2020/12/14 13:41:05;;;;;;;15.77;10.50;;;8.50;99.90;;;;;;5001882;28;20529;-70
2020/12/14 13:43:32;;;;;;;16.70;9.50;;;8.60;99.90;;;;;;4994549;28;20830;-68
2020/12/14 13:45:58;;;;;;;17.00;9.43;;;8.60;99.90;;;;;;4991327;28;20434;-69
2020/12/14 13:48:25;;;;;;;18.10;10.40;;;8.50;99.90;;;;;;5004749;28;20465;-71
2020/12/14 13:50:51;;;;;;;15.50;10.17;;;8.50;99.90;;;;;;4994301;28;20507;-69
2020/12/14 13:53:19;;;;;;;21.03;11.90;;;8.50;99.90;;;;;;4995350;28;20494;-69
2020/12/14 13:55:45;;;;;;;14.97;8.73;;;8.50;99.90;;;;;;4995221;28;20754;-69
2020/12/14 13:58:12;;;;;;;15.57;9.40;;;8.50;99.90;;;;;;4994236;28;20563;-69
2020/12/14 14:00:38;;;;;;;16.17;9.83;;;8.50;99.90;;;;;;4997217;28;20533;-69
2020/12/14 14:03:05;;;;;;;12.87;8.37;;;8.50;99.90;;;;;;4998319;28;20454;-69
2020/12/14 14:05:31;;;;;;;12.77;8.70;;;8.50;99.90;;;;;;5009730;28;20443;-70
2020/12/14 14:07:57;;;;;;;14.77;9.00;;;8.40;99.90;;;;;;5009707;28;20438;-70
2020/12/14 14:10:25;;;;;;;12.10;8.27;;;8.50;99.90;;;;;;4995045;28;20469;-70
2020/12/14 14:12:51;;;;;;;17.53;10.40;;;8.50;99.90;;;;;;5000252;28;20449;-69
2020/12/14 14:15:17;;;;;;;16.63;9.33;;;8.40;99.90;;;;;;5001057;28;20512;-71
2020/12/14 14:17:44;;;;;;;15.10;10.83;;;8.40;99.90;;;;;;5001393;28;20470;-68
2020/12/14 14:20:10;;;;;;;19.57;10.30;;;8.40;99.90;;;;;;4992270;28;20458;-68
2020/12/14 14:22:37;;;;;;;20.60;11.73;;;8.30;99.90;;;;;;4995761;28;20525;-69
2020/12/14 14:25:04;;;;;;;15.30;9.70;;;8.30;99.90;;;;;;4994287;28;20441;-69
2020/12/14 14:27:31;;;;;;;15.93;9.07;;;8.30;99.90;;;;;;4998915;28;20425;-70
2020/12/14 14:30:02;;;;;;;17.43;9.43;;;8.30;99.90;;;;;;4996524;28;20475;-72
2020/12/14 14:32:31;;;;;;;19.30;9.90;;;8.30;99.90;;;;;;4997379;28;20461;-69
2020/12/14 14:34:57;;;;;;;16.33;10.70;;;8.30;99.90;;;;;;5002225;28;20441;-69
2020/12/14 14:37:24;;;;;;;16.77;10.03;;;8.20;99.90;;;;;;5011279;28;20450;-71
2020/12/14 14:39:51;;;;;;;12.60;9.03;;;8.20;99.90;;;;;;5000918;28;20787;-70
2020/12/14 14:42:19;;;;;;;11.07;8.60;;;8.10;99.90;;;;;;4987277;28;20486;-69
2020/12/14 14:44:46;;;;;;;15.00;10.40;;;8.10;99.90;;;;;;4997693;28;20458;-69
2020/12/14 14:47:15;;;;;;;15.40;9.57;;;8.10;99.90;;;;;;4992211;28;20518;-70
2020/12/14 14:49:43;;;;;;;12.60;9.00;;;8.00;99.90;;;;;;4998991;28;20512;-73
2020/12/14 14:52:09;;;;;;;16.27;9.37;;;8.00;99.90;;;;;;5004007;28;20485;-71
2020/12/14 14:54:35;;;;;;;18.53;10.10;;;7.90;99.90;;;;;;5002105;28;20434;-72
2020/12/14 14:57:02;;;;;;;44.97;14.90;;;7.90;99.90;;;;;;4997856;28;20462;-74
2020/12/14 14:59:28;;;;;;;24.80;11.93;;;7.80;99.90;;;;;;5005462;28;20501;-72
2020/12/14 15:01:58;;;;;;;20.53;10.17;;;7.90;99.90;;;;;;4997251;28;20474;-72
2020/12/14 15:04:25;;;;;;;18.07;10.67;;;8.00;99.90;;;;;;4993279;28;20467;-72
2020/12/14 15:06:55;;;;;;;17.13;10.93;;;8.00;99.90;;;;;;4994365;28;20546;-73
2020/12/14 15:09:21;;;;;;;25.60;10.67;;;7.90;99.90;;;;;;4989852;28;20529;-73
2020/12/14 15:11:49;;;;;;;19.20;10.23;;;7.90;99.90;;;;;;5001557;28;20438;-73
2020/12/14 15:14:22;;;;;;;16.23;9.23;;;7.90;99.90;;;;;;4991428;28;20450;-76
2020/12/14 15:16:49;;;;;;;18.10;10.00;;;8.00;99.90;;;;;;4991638;28;20435;-72
2020/12/14 15:19:16;;;;;;;22.60;10.00;;;8.00;99.90;;;;;;5002615;28;20500;-73
2020/12/14 15:21:43;;;;;;;18.37;10.53;;;8.00;99.90;;;;;;4999593;28;20454;-72
2020/12/14 15:24:09;;;;;;;19.50;11.40;;;8.00;99.90;;;;;;4997527;28;20530;-73
2020/12/14 15:26:35;;;;;;;16.97;11.20;;;8.00;99.90;;;;;;4994675;28;20505;-72
2020/12/14 15:29:02;;;;;;;34.47;21.43;;;8.00;99.90;;;;;;5010109;28;20871;-72
2020/12/14 15:31:29;;;;;;;17.97;10.57;;;8.10;99.90;;;;;;5006247;28;20962;-72
2020/12/14 15:33:55;;;;;;;19.00;10.93;;;8.10;99.90;;;;;;4996815;28;20777;-74
2020/12/14 15:36:24;;;;;;;15.80;9.93;;;8.10;99.90;;;;;;4988778;28;20501;-73
2020/12/14 15:38:52;;;;;;;17.17;10.40;;;8.10;99.90;;;;;;4995187;28;20573;-72
2020/12/14 15:41:20;;;;;;;23.00;11.60;;;8.10;99.90;;;;;;4999098;28;20859;-73
2020/12/14 15:43:48;;;;;;;20.03;12.07;;;8.10;99.90;;;;;;5004068;28;20453;-73
2020/12/14 15:46:17;;;;;;;414.90;287.60;;;8.10;99.90;;;;;;5007441;28;20442;-73
2020/12/14 15:48:44;;;;;;;24.60;17.80;;;8.20;99.90;;;;;;4999833;28;20476;-75
2020/12/14 15:51:11;;;;;;;29.53;17.17;;;9.00;99.90;;;;;;4990414;28;20496;-75
2020/12/14 15:53:40;;;;;;;17.13;10.80;;;9.80;99.90;;;;;;4994503;28;20481;-74
2020/12/14 15:56:06;;;;;;;14.63;9.60;;;10.30;99.90;;;;;;4997476;28;20446;-75
2020/12/14 15:58:33;;;;;;;16.60;10.50;;;10.60;99.90;;;;;;4999009;28;20469;-74
2020/12/14 16:01:00;;;;;;;15.50;8.80;;;10.90;99.90;;;;;;4992657;28;20539;-76
2020/12/14 16:03:27;;;;;;;11.70;8.17;;;11.20;99.90;;;;;;4990989;28;20481;-76
2020/12/14 16:05:54;;;;;;;15.17;9.83;;;11.50;99.90;;;;;;4994184;28;20501;-71
2020/12/14 16:08:21;;;;;;;16.03;10.00;;;11.50;99.90;;;;;;4991361;28;20452;-72
2020/12/14 16:10:50;;;;;;;16.00;8.87;;;10.90;99.90;;;;;;4998654;28;20441;-72
2020/12/14 16:13:16;;;;;;;11.63;8.80;;;10.40;99.90;;;;;;5006635;28;20458;-73
2020/12/14 16:15:43;;;;;;;12.70;10.10;;;9.90;99.90;;;;;;5006446;28;20452;-72
2020/12/14 16:18:09;;;;;;;15.40;9.20;;;9.60;99.90;;;;;;5007512;28;20501;-72
2020/12/14 16:20:36;;;;;;;16.30;10.13;;;9.30;99.90;;;;;;5000319;28;20438;-73
2020/12/14 16:23:04;;;;;;;16.30;10.40;;;9.00;99.90;;;;;;4999724;28;20442;-72
2020/12/14 16:25:31;;;;;;;17.83;10.90;;;8.90;99.90;;;;;;5002580;28;20480;-72
2020/12/14 16:27:58;;;;;;;12.27;9.30;;;8.90;99.90;;;;;;4995461;28;20469;-71
2020/12/14 16:30:27;;;;;;;15.00;8.70;;;8.70;99.90;;;;;;5003452;28;21152;-71
2020/12/14 16:32:53;;;;;;;12.97;8.90;;;8.60;99.90;;;;;;5004389;28;20447;-72
2020/12/14 16:35:23;;;;;;;27.67;15.03;;;8.40;99.90;;;;;;5002487;28;20496;-71
2020/12/14 16:37:51;;;;;;;17.80;10.73;;;8.40;99.90;;;;;;4993153;28;20892;-71
2020/12/14 16:40:17;;;;;;;20.80;11.87;;;8.30;99.90;;;;;;5003569;28;20446;-72
2020/12/14 16:42:44;;;;;;;17.10;10.03;;;8.20;99.90;;;;;;5008714;28;20537;-72
2020/12/14 16:45:11;;;;;;;13.90;8.90;;;8.20;99.90;;;;;;5009229;28;20544;-73
2020/12/14 16:47:38;;;;;;;15.10;10.07;;;8.20;99.90;;;;;;4997689;28;20526;-74
2020/12/14 16:50:05;;;;;;;13.53;8.40;;;8.20;99.90;;;;;;5004325;28;20562;-76
2020/12/14 16:52:32;;;;;;;18.97;9.90;;;8.20;99.90;;;;;;4998691;28;20478;-74
2020/12/14 16:54:58;;;;;;;16.63;9.80;;;8.20;99.90;;;;;;4997283;28;20533;-75
2020/12/14 16:57:24;;;;;;;16.40;9.70;;;8.20;99.90;;;;;;4988660;28;20514;-74
2020/12/14 16:59:51;;;;;;;15.20;9.13;;;8.20;99.90;;;;;;5004867;28;20480;-73
2020/12/14 17:02:18;;;;;;;13.47;9.10;;;8.20;99.90;;;;;;5004752;28;20469;-73
2020/12/14 17:04:54;;;;;;;16.77;8.77;;;8.10;99.90;;;;;;4993173;28;21798;-70
2020/12/14 17:07:25;;;;;;;15.67;9.77;;;8.00;99.90;;;;;;5004908;28;20449;-72
2020/12/14 17:09:52;;;;;;;12.50;8.97;;;8.00;99.90;;;;;;5006337;28;20442;-71
2020/12/14 17:12:18;;;;;;;15.27;8.50;;;8.00;99.90;;;;;;5001345;28;20557;-72
2020/12/14 17:14:45;;;;;;;14.53;9.53;;;8.00;99.90;;;;;;4999028;28;20856;-73
2020/12/14 17:17:12;;;;;;;12.10;8.83;;;8.00;99.90;;;;;;5005592;28;20442;-71
2020/12/14 17:19:39;;;;;;;18.13;9.37;;;8.10;99.90;;;;;;5003731;28;20499;-72
2020/12/14 17:22:06;;;;;;;15.73;9.47;;;8.00;99.90;;;;;;4998795;28;20821;-71
2020/12/14 17:24:36;;;;;;;16.63;9.10;;;8.00;99.90;;;;;;5005460;28;21171;-71
2020/12/14 17:27:03;;;;;;;16.13;8.93;;;8.00;99.90;;;;;;5007197;28;20477;-71
2020/12/14 17:29:29;;;;;;;19.87;11.73;;;8.00;99.90;;;;;;4985592;28;20469;-71
2020/12/14 17:31:56;;;;;;;21.93;13.30;;;8.00;99.90;;;;;;5004731;28;20477;-72
2020/12/14 17:34:29;;;;;;;14.90;9.60;;;8.00;99.90;;;;;;5003092;28;20442;-71
2020/12/14 17:36:57;;;;;;;13.97;8.07;;;8.00;99.90;;;;;;5008263;28;20455;-72
2020/12/14 17:39:23;;;;;;;12.87;9.63;;;8.00;99.90;;;;;;5007027;28;20480;-73
2020/12/14 17:41:53;;;;;;;12.47;9.17;;;7.90;99.90;;;;;;5012205;28;20445;-72
2020/12/14 17:44:19;;;;;;;11.80;8.60;;;7.90;99.90;;;;;;5008441;28;20460;-71
2020/12/14 17:46:47;;;;;;;11.00;8.77;;;7.90;99.90;;;;;;5008771;28;20460;-72
2020/12/14 17:49:13;;;;;;;13.27;7.60;;;7.90;99.90;;;;;;5011656;28;20521;-72
2020/12/14 17:51:40;;;;;;;8.57;7.40;;;7.90;99.90;;;;;;5002381;28;20478;-74
2020/12/14 17:54:07;;;;;;;17.13;8.83;;;7.90;99.90;;;;;;4993788;28;20791;-71
2020/12/14 17:56:34;;;;;;;16.10;9.07;;;7.80;99.90;;;;;;5004256;28;20444;-71
2020/12/14 17:59:00;;;;;;;15.73;7.90;;;7.90;99.90;;;;;;5007860;28;21053;-72
2020/12/14 18:01:27;;;;;;;9.97;6.83;;;7.80;99.90;;;;;;5010030;28;20507;-73
2020/12/14 18:03:54;;;;;;;13.70;8.30;;;7.80;99.90;;;;;;4999833;28;20492;-73
2020/12/14 18:06:25;;;;;;;12.23;7.77;;;7.80;99.90;;;;;;5001439;28;20957;-72
2020/12/14 18:08:51;;;;;;;14.60;9.50;;;7.80;99.90;;;;;;5011336;28;20453;-72
2020/12/14 18:11:19;;;;;;;13.90;8.17;;;7.90;99.90;;;;;;5008367;28;20484;-72
2020/12/14 18:13:45;;;;;;;12.80;7.70;;;7.90;99.90;;;;;;5012396;28;20511;-72
2020/12/14 18:16:15;;;;;;;13.20;8.63;;;8.00;99.90;;;;;;5013240;28;20481;-72
2020/12/14 18:18:42;;;;;;;13.00;8.20;;;8.00;99.90;;;;;;5007820;28;21033;-73
2020/12/14 18:21:09;;;;;;;27.77;15.93;;;8.00;99.90;;;;;;5008585;28;20926;-73
2020/12/14 18:23:36;;;;;;;12.33;8.10;;;7.90;99.90;;;;;;5003894;28;20456;-72
2020/12/14 18:26:03;;;;;;;12.37;8.20;;;8.00;99.90;;;;;;5001918;28;20510;-75
2020/12/14 18:28:30;;;;;;;15.20;9.00;;;8.00;99.90;;;;;;5011546;28;20449;-75
2020/12/14 18:30:57;;;;;;;13.80;8.27;;;8.00;99.90;;;;;;4998990;28;20481;-74
2020/12/14 21:24:15;;;;;;;18.83;10.77;;;7.70;99.90;;;;;;5004860;28;20476;-73
2020/12/14 21:26:42;;;;;;;18.43;12.50;;;7.70;99.90;;;;;;4997656;28;20541;-65
2020/12/14 21:29:08;;;;;;;18.83;10.80;;;7.70;99.90;;;;;;5002409;28;20457;-64
2020/12/14 21:31:36;;;;;;;18.73;10.50;;;7.80;99.90;;;;;;5010188;28;20913;-63
2020/12/14 21:34:02;;;;;;;19.60;11.47;;;7.90;99.90;;;;;;5005567;28;20470;-64
2020/12/14 21:36:29;;;;;;;31.77;17.17;;;7.90;99.90;;;;;;5003467;28;20457;-64
2020/12/14 21:38:57;;;;;;;22.67;12.57;;;8.00;99.90;;;;;;5006618;28;20597;-65
2020/12/14 21:41:27;;;;;;;19.47;11.70;;;8.00;99.90;;;;;;5015944;28;20449;-65
2020/12/14 21:43:55;;;;;;;16.67;10.40;;;8.00;99.90;;;;;;5015362;28;20828;-64
2020/12/14 21:46:26;;;;;;;17.03;10.73;;;8.00;99.90;;;;;;5017294;28;20444;-65
2020/12/14 21:48:53;;;;;;;17.50;10.77;;;8.00;99.90;;;;;;5008731;28;20521;-66
2020/12/14 21:51:20;;;;;;;22.43;11.20;;;8.00;99.90;;;;;;5007604;28;20544;-65
2020/12/14 21:53:47;;;;;;;17.40;11.07;;;8.00;99.90;;;;;;5007050;28;20446;-65
2020/12/14 21:56:16;;;;;;;22.07;11.70;;;8.00;99.90;;;;;;4992996;28;20469;-64
2020/12/14 21:58:44;;;;;;;22.97;12.40;;;8.00;99.90;;;;;;5009840;28;20485;-65
2020/12/14 22:01:10;;;;;;;20.70;11.83;;;8.00;99.90;;;;;;5007228;28;20478;-65
2020/12/14 22:03:39;;;;;;;22.50;12.90;;;8.00;99.90;;;;;;5003536;28;20480;-64
2020/12/14 22:06:06;;;;;;;16.80;11.30;;;8.00;99.90;;;;;;5008624;28;20484;-64
2020/12/14 22:08:33;;;;;;;17.93;10.47;;;8.00;99.90;;;;;;5013632;28;20532;-65
2020/12/14 22:11:01;;;;;;;20.53;11.57;;;8.00;99.90;;;;;;5012722;28;20514;-67
2020/12/14 22:13:28;;;;;;;18.40;11.40;;;8.00;99.90;;;;;;5014705;28;20548;-67
2020/12/14 22:15:54;;;;;;;18.37;11.63;;;8.00;99.90;;;;;;5007255;28;20469;-65
2020/12/14 22:18:20;;;;;;;19.10;12.27;;;8.00;99.90;;;;;;5008991;28;20948;-66
2020/12/14 22:20:47;;;;;;;17.40;10.40;;;8.10;99.90;;;;;;5010810;28;20445;-65
2020/12/14 22:23:15;;;;;;;19.50;11.40;;;8.00;99.90;;;;;;4996188;28;20452;-64
2020/12/14 22:25:41;;;;;;;16.23;9.77;;;8.10;99.90;;;;;;4993464;28;20469;-65
2020/12/14 22:28:08;;;;;;;17.67;11.60;;;8.00;99.90;;;;;;5014336;28;20528;-64
2020/12/14 22:30:34;;;;;;;16.10;10.33;;;8.10;99.90;;;;;;5012498;28;20480;-65
2020/12/14 22:33:00;;;;;;;13.67;9.47;;;8.10;99.90;;;;;;5006761;28;20812;-64
2020/12/14 22:35:27;;;;;;;17.90;11.53;;;8.20;99.90;;;;;;5014469;28;20496;-63
2020/12/14 22:37:53;;;;;;;15.90;11.03;;;8.20;99.90;;;;;;5004819;28;20438;-64
2020/12/14 22:40:21;;;;;;;18.83;11.83;;;8.10;99.90;;;;;;5004668;28;20486;-66
2020/12/14 22:42:47;;;;;;;17.80;10.97;;;8.10;99.90;;;;;;5006805;28;20976;-64
2020/12/14 22:45:13;;;;;;;17.90;11.77;;;8.00;99.90;;;;;;5009690;28;20493;-65
2020/12/14 22:47:40;;;;;;;22.47;13.50;;;8.00;99.90;;;;;;5004571;28;20521;-64
2020/12/14 22:50:06;;;;;;;14.30;10.00;;;8.00;99.90;;;;;;4997569;28;20938;-63